Time;durP1;ratioP1;P1;durP2;ratioP2;P2;SDS_P1;SDS_P2;PMS_P1;PMS_P2;Temp;Humidity;BMP_temperature;BMP_pressure;BME280_temperature;BME280_humidity;BME280_pressure;Samples;Min_cycle;Max_cycle;Signal;HPM_P1;HPM_P2
2022/04/19 00:00:16;;;;;;;5.35;4.85;;;9.90;81.70;;;;;;5134916;27;20567;-68
2022/04/19 00:02:45;;;;;;;4.50;4.20;;;9.90;82.70;;;;;;5134760;27;20228;-68
2022/04/19 00:05:12;;;;;;;6.28;4.40;;;9.90;83.90;;;;;;5134398;27;20240;-68
2022/04/19 00:07:39;;;;;;;6.38;4.28;;;9.90;82.70;;;;;;5134787;27;20200;-68
2022/04/19 00:10:07;;;;;;;5.05;4.50;;;9.90;83.80;;;;;;5134703;27;20556;-68
2022/04/19 00:12:34;;;;;;;4.30;3.90;;;9.90;84.20;;;;;;5135147;27;20220;-67
2022/04/19 00:15:01;;;;;;;4.53;4.13;;;9.80;84.10;;;;;;5134550;27;20228;-68
2022/04/19 00:17:28;;;;;;;5.03;4.45;;;9.90;83.70;;;;;;5134721;27;20197;-68
2022/04/19 00:19:56;;;;;;;4.82;4.43;;;10.00;82.80;;;;;;5134531;27;20651;-68
2022/04/19 00:22:23;;;;;;;4.63;4.20;;;10.00;83.10;;;;;;5134661;27;20243;-67
2022/04/19 00:24:50;;;;;;;5.95;4.50;;;10.00;82.30;;;;;;5134398;27;20203;-67
2022/04/19 00:27:17;;;;;;;4.45;4.05;;;10.00;82.90;;;;;;5134892;28;20261;-68
2022/04/19 00:29:43;;;;;;;4.60;4.20;;;10.00;82.60;;;;;;5134265;28;20610;-68
2022/04/19 00:32:10;;;;;;;4.35;3.95;;;10.00;82.90;;;;;;5134452;28;20216;-68
2022/04/19 00:34:38;;;;;;;4.10;3.72;;;10.00;83.80;;;;;;5134334;28;20200;-67
2022/04/19 00:37:07;;;;;;;4.78;4.07;;;9.90;84.00;;;;;;5134894;28;20200;-68
2022/04/19 00:39:34;;;;;;;4.50;4.10;;;9.90;83.50;;;;;;5134909;28;20216;-68
2022/04/19 00:42:01;;;;;;;6.20;4.70;;;9.80;84.70;;;;;;5134311;27;20217;-67
2022/04/19 00:44:28;;;;;;;5.78;4.63;;;9.80;84.60;;;;;;5134041;28;20239;-68
2022/04/19 00:46:55;;;;;;;5.32;4.82;;;9.80;84.90;;;;;;5134328;28;20292;-68
2022/04/19 00:49:21;;;;;;;6.53;5.05;;;9.70;85.70;;;;;;5134330;27;20253;-68
2022/04/19 00:51:48;;;;;;;5.57;4.10;;;9.70;86.00;;;;;;5134202;28;20228;-68
2022/04/19 00:54:18;;;;;;;4.70;3.88;;;9.60;86.60;;;;;;5134185;28;20211;-68
2022/04/19 00:56:46;;;;;;;4.38;3.70;;;9.60;86.00;;;;;;5134233;28;20659;-67
2022/04/19 00:59:13;;;;;;;4.50;4.10;;;9.50;85.70;;;;;;5134316;28;20207;-67
2022/04/19 01:01:39;;;;;;;6.15;4.40;;;9.50;85.80;;;;;;5134143;28;20629;-68
2022/04/19 01:04:06;;;;;;;4.10;3.80;;;9.40;86.20;;;;;;5133803;28;20213;-68
2022/04/19 01:06:33;;;;;;;4.22;3.83;;;9.40;86.80;;;;;;5134056;28;20209;-68
2022/04/19 01:09:00;;;;;;;6.10;4.40;;;9.30;87.10;;;;;;5134215;28;20204;-67
2022/04/19 01:14:13;;;;;;;5.22;4.72;;;9.20;88.30;;;;;;5134006;28;20191;-68
2022/04/19 01:16:41;;;;;;;6.60;5.18;;;9.20;89.20;;;;;;5136251;27;20623;-68
2022/04/19 01:19:15;;;;;;;5.45;4.95;;;9.10;90.00;;;;;;5137808;27;20205;-68
2022/04/19 01:21:46;;;;;;;6.75;5.25;;;9.10;90.20;;;;;;5138096;27;20586;-67
2022/04/19 01:24:18;;;;;;;4.75;4.35;;;9.00;90.30;;;;;;5137769;27;20208;-68
2022/04/19 01:26:45;;;;;;;5.18;4.72;;;9.00;90.40;;;;;;5137887;27;20196;-68
2022/04/19 01:29:13;;;;;;;6.50;4.30;;;9.00;90.20;;;;;;5137678;27;20204;-67
2022/04/19 01:31:41;;;;;;;5.28;4.78;;;9.10;90.10;;;;;;5137562;27;20229;-67
2022/04/19 01:34:09;;;;;;;5.22;4.72;;;9.10;90.20;;;;;;5137691;27;20231;-68
2022/04/19 01:36:36;;;;;;;5.30;4.78;;;9.10;90.40;;;;;;5137896;27;20197;-68
2022/04/19 01:39:05;;;;;;;5.20;4.57;;;9.00;90.40;;;;;;5137559;27;20291;-68
2022/04/19 01:41:32;;;;;;;6.18;5.40;;;9.00;90.50;;;;;;5137495;27;20220;-67
2022/04/19 01:43:59;;;;;;;6.93;5.10;;;9.00;90.60;;;;;;5137187;27;20211;-68
2022/04/19 01:46:26;;;;;;;6.65;5.35;;;8.90;90.70;;;;;;5137530;27;20205;-67
2022/04/19 01:48:54;;;;;;;5.45;4.95;;;8.90;90.90;;;;;;5137449;27;20197;-68
2022/04/19 01:51:21;;;;;;;5.43;4.45;;;8.80;91.00;;;;;;5137242;27;20599;-68
2022/04/19 01:53:49;;;;;;;5.60;5.10;;;8.90;91.10;;;;;;5137225;27;20296;-68
2022/04/19 01:56:17;;;;;;;5.85;4.82;;;9.00;90.80;;;;;;5137255;27;20201;-68
2022/04/19 01:58:44;;;;;;;5.78;5.10;;;9.00;90.60;;;;;;5137307;27;20203;-67
2022/04/19 02:01:11;;;;;;;6.75;5.38;;;9.10;90.90;;;;;;5137020;27;20720;-68
2022/04/19 02:03:38;;;;;;;5.93;5.35;;;9.10;91.20;;;;;;5137321;27;20201;-68
2022/04/19 02:06:08;;;;;;;6.00;5.50;;;9.10;91.20;;;;;;5137014;27;20205;-67
2022/04/19 02:08:35;;;;;;;6.30;5.70;;;9.10;91.20;;;;;;5137095;27;20258;-67
2022/04/19 02:11:01;;;;;;;5.70;5.18;;;9.00;91.10;;;;;;5136791;27;20293;-67
2022/04/19 02:13:30;;;;;;;6.05;5.40;;;9.00;91.10;;;;;;5136778;27;20223;-68
2022/04/19 02:15:58;;;;;;;7.53;5.50;;;8.90;91.00;;;;;;5136919;27;20196;-68
2022/04/19 02:18:25;;;;;;;5.15;4.65;;;8.90;91.20;;;;;;5136893;27;20555;-67
2022/04/19 02:20:52;;;;;;;5.47;5.00;;;8.80;91.60;;;;;;5136982;27;20203;-68
2022/04/19 02:23:19;;;;;;;5.53;5.03;;;8.80;91.90;;;;;;5136491;27;20232;-68
2022/04/19 02:25:47;;;;;;;6.55;5.53;;;8.70;92.20;;;;;;5136696;27;20318;-67
2022/04/19 02:28:14;;;;;;;6.30;5.70;;;8.50;92.60;;;;;;5136597;27;20201;-67
2022/04/19 02:30:42;;;;;;;6.00;5.43;;;8.50;92.50;;;;;;5136373;27;20230;-67
2022/04/19 02:33:09;;;;;;;6.22;5.47;;;8.60;92.40;;;;;;5136358;27;20220;-68
2022/04/19 02:35:36;;;;;;;6.25;5.43;;;8.60;92.40;;;;;;5136704;27;20208;-67
2022/04/19 02:38:03;;;;;;;5.43;4.80;;;8.60;92.60;;;;;;5136313;27;20726;-68
2022/04/19 02:40:30;;;;;;;6.38;5.45;;;8.70;92.60;;;;;;5136435;27;20207;-68
2022/04/19 02:42:56;;;;;;;7.18;5.32;;;8.70;92.60;;;;;;5136059;27;20773;-68
2022/04/19 02:45:24;;;;;;;6.10;5.15;;;8.80;92.70;;;;;;5136324;27;20201;-67
2022/04/19 02:48:03;;;;;;;5.90;5.30;;;8.70;92.70;;;;;;5136266;27;20211;-67
2022/04/19 02:50:30;;;;;;;6.43;5.05;;;8.70;92.70;;;;;;5136022;27;20661;-67
2022/04/19 02:52:57;;;;;;;5.30;4.80;;;8.70;92.80;;;;;;5136169;27;20227;-68
2022/04/19 02:55:24;;;;;;;5.60;5.10;;;8.50;92.70;;;;;;5136365;27;20205;-67
2022/04/19 02:57:50;;;;;;;5.53;5.00;;;8.50;92.80;;;;;;5136110;27;20205;-68
2022/04/19 03:00:18;;;;;;;6.00;5.40;;;8.40;93.10;;;;;;5135959;27;20201;-68
2022/04/19 03:02:46;;;;;;;5.72;5.10;;;8.40;93.40;;;;;;5136161;27;20217;-68
2022/04/19 03:05:14;;;;;;;5.85;5.38;;;8.30;93.50;;;;;;5135813;27;20299;-68
2022/04/19 03:07:41;;;;;;;6.15;5.15;;;8.40;93.40;;;;;;5136014;27;20239;-68
2022/04/19 03:10:12;;;;;;;8.80;5.80;;;8.40;93.90;;;;;;5136057;27;20269;-68
2022/04/19 03:12:39;;;;;;;6.10;5.10;;;8.30;94.30;;;;;;5135438;27;20224;-68
2022/04/19 03:15:07;;;;;;;6.20;5.60;;;8.30;94.50;;;;;;5135600;27;20200;-67
2022/04/19 03:17:35;;;;;;;6.68;5.85;;;8.30;94.60;;;;;;5135734;27;20246;-67
2022/04/19 03:20:03;;;;;;;6.15;5.57;;;8.40;94.70;;;;;;5135717;27;20680;-67
2022/04/19 03:27:41;;;;;;;6.95;5.93;;;8.40;94.80;;;;;;5135636;27;20221;-67
2022/04/19 03:28:03;;;;;;;7.05;5.70;;;8.40;94.60;;;;;;5135576;27;20576;-68
2022/04/19 03:30:30;;;;;;;7.55;6.00;;;8.40;94.90;;;;;;5135323;27;20678;-68
2022/04/19 03:32:57;;;;;;;5.90;5.30;;;8.40;94.40;;;;;;5135568;27;20315;-67
2022/04/19 03:35:24;;;;;;;6.78;5.38;;;8.40;94.40;;;;;;5135463;27;20228;-67
2022/04/19 03:37:52;;;;;;;7.38;6.13;;;8.40;94.50;;;;;;5135432;27;20203;-68
2022/04/19 03:40:19;;;;;;;6.80;5.53;;;8.40;94.70;;;;;;5134950;27;20228;-68
2022/04/19 03:42:46;;;;;;;6.50;5.68;;;8.30;94.50;;;;;;5135393;27;20636;-67
2022/04/19 03:45:13;;;;;;;6.38;5.78;;;8.30;94.90;;;;;;5135075;27;20204;-67
2022/04/19 03:47:40;;;;;;;6.20;5.60;;;8.30;94.80;;;;;;5135176;27;20574;-67
2022/04/19 03:50:07;;;;;;;6.78;6.15;;;8.30;94.90;;;;;;5135144;27;20207;-67
2022/04/19 03:52:36;;;;;;;6.70;5.95;;;8.30;94.90;;;;;;5134696;27;20229;-67
2022/04/19 03:55:05;;;;;;;7.60;5.40;;;8.20;95.30;;;;;;5134677;27;20666;-67
2022/04/19 03:57:32;;;;;;;6.13;5.53;;;8.10;95.30;;;;;;5135293;27;20240;-67
2022/04/19 03:59:59;;;;;;;6.75;5.20;;;8.20;95.40;;;;;;5134924;27;20287;-68
2022/04/19 04:02:26;;;;;;;6.28;5.70;;;8.10;95.40;;;;;;5134789;27;20694;-67
2022/04/19 04:04:53;;;;;;;5.78;5.28;;;8.10;95.30;;;;;;5134954;27;20235;-67
2022/04/19 04:07:20;;;;;;;6.55;5.25;;;8.00;95.20;;;;;;5134955;27;20558;-67
2022/04/19 04:09:49;;;;;;;6.32;5.75;;;8.00;95.20;;;;;;5134828;27;20197;-67
2022/04/19 04:12:17;;;;;;;6.95;5.93;;;8.00;95.40;;;;;;5134386;27;20228;-67
2022/04/19 04:14:44;;;;;;;6.82;5.60;;;8.10;95.80;;;;;;5134640;27;20201;-67
2022/04/19 04:17:11;;;;;;;6.00;5.40;;;8.10;95.90;;;;;;5134762;27;20295;-67
2022/04/19 04:19:38;;;;;;;8.25;5.93;;;8.10;96.00;;;;;;5134648;27;20204;-67
2022/04/19 04:22:06;;;;;;;7.13;5.90;;;8.00;96.00;;;;;;5134655;27;20213;-67
2022/04/19 04:24:33;;;;;;;6.88;6.22;;;7.90;96.20;;;;;;5134534;27;20211;-68
2022/04/19 04:27:00;;;;;;;9.57;7.93;;;7.80;96.90;;;;;;5134702;27;20196;-68
2022/04/19 04:29:28;;;;;;;11.38;7.00;;;7.90;97.30;;;;;;5134425;28;20236;-67
2022/04/19 04:31:55;;;;;;;7.25;6.55;;;7.80;97.40;;;;;;5134446;27;20262;-67
2022/04/19 04:34:22;;;;;;;6.95;6.25;;;7.80;97.60;;;;;;5134178;28;20203;-67
2022/04/19 04:36:49;;;;;;;7.28;6.45;;;7.70;98.10;;;;;;5134606;28;20570;-67
2022/04/19 04:39:16;;;;;;;8.32;6.60;;;7.70;98.30;;;;;;5134534;28;20207;-67
2022/04/19 04:41:45;;;;;;;7.55;6.70;;;7.70;98.60;;;;;;5134347;28;20702;-67
2022/04/19 04:44:11;;;;;;;6.82;6.22;;;7.70;98.90;;;;;;5134361;28;20613;-67
2022/04/19 04:49:39;;;;;;;7.38;6.53;;;7.60;98.80;;;;;;5091401;28;20289;-67
2022/04/19 04:52:08;;;;;;;7.18;5.95;;;7.70;98.70;;;;;;5094048;28;20623;-67
2022/04/19 04:54:36;;;;;;;7.45;6.70;;;7.60;99.80;;;;;;5115039;27;20201;-67
2022/04/19 04:57:03;;;;;;;7.20;6.47;;;7.60;99.90;;;;;;5138474;27;20200;-67
2022/04/19 04:59:30;;;;;;;6.80;6.13;;;7.70;99.90;;;;;;5138408;27;20208;-67
2022/04/19 05:01:59;;;;;;;8.75;6.70;;;7.70;99.90;;;;;;5138302;27;20217;-67
2022/04/19 05:04:26;;;;;;;7.70;6.80;;;7.80;99.90;;;;;;5138012;27;20200;-67
2022/04/19 05:06:53;;;;;;;8.80;7.00;;;7.80;99.90;;;;;;5138470;27;20207;-67
2022/04/19 05:09:19;;;;;;;8.02;6.80;;;7.90;99.90;;;;;;5138304;27;20197;-68
2022/04/19 05:11:46;;;;;;;8.35;7.05;;;7.70;99.90;;;;;;5137894;27;20229;-68
2022/04/19 05:14:13;;;;;;;7.82;7.05;;;7.80;99.90;;;;;;5138002;27;20208;-67
2022/04/19 05:16:40;;;;;;;7.82;7.13;;;7.80;99.90;;;;;;5138223;27;20211;-68
2022/04/19 05:19:09;;;;;;;10.15;7.80;;;7.80;99.90;;;;;;5138061;27;20228;-67
2022/04/19 05:21:37;;;;;;;10.45;7.85;;;7.60;99.90;;;;;;5138038;27;20243;-68
2022/04/19 05:24:05;;;;;;;9.95;7.95;;;7.40;99.90;;;;;;5137572;27;20205;-67
2022/04/19 05:26:32;;;;;;;7.90;7.10;;;7.30;99.90;;;;;;5138000;27;20196;-67
2022/04/19 05:28:59;;;;;;;8.32;7.35;;;7.40;99.90;;;;;;5137560;27;20208;-68
2022/04/19 05:31:26;;;;;;;8.90;7.68;;;7.40;99.90;;;;;;5137874;27;20200;-68
2022/04/19 05:33:53;;;;;;;8.32;7.40;;;7.50;99.90;;;;;;5137423;27;20684;-68
2022/04/19 05:36:22;;;;;;;8.07;7.25;;;7.70;99.90;;;;;;5137881;27;20561;-68
2022/04/19 05:38:52;;;;;;;9.25;6.80;;;7.80;99.90;;;;;;5137647;27;20227;-67
2022/04/19 05:41:19;;;;;;;9.25;7.15;;;7.90;99.90;;;;;;5137695;27;20209;-68
2022/04/19 05:43:47;;;;;;;9.82;7.57;;;7.90;99.90;;;;;;5137569;27;20212;-68
2022/04/19 05:46:13;;;;;;;8.82;7.97;;;7.80;99.90;;;;;;5137899;27;20204;-68
2022/04/19 05:48:40;;;;;;;8.43;7.53;;;7.70;99.90;;;;;;5137401;27;20749;-68
2022/04/19 05:51:07;;;;;;;8.90;7.65;;;7.90;99.90;;;;;;5137147;27;20200;-68
2022/04/19 05:53:35;;;;;;;12.93;9.77;;;8.00;99.90;;;;;;5137198;27;20414;-68
2022/04/19 05:56:02;;;;;;;10.88;7.85;;;8.00;99.90;;;;;;5137202;27;20300;-68
2022/04/19 05:58:29;;;;;;;9.43;7.75;;;8.00;99.90;;;;;;5137372;27;20287;-68
2022/04/19 06:00:56;;;;;;;9.25;7.82;;;8.00;99.90;;;;;;5137386;27;20205;-67
2022/04/19 06:06:07;;;;;;;9.35;7.65;;;7.80;99.90;;;;;;5137414;27;20192;-68
2022/04/19 06:08:35;;;;;;;9.02;8.10;;;7.80;99.90;;;;;;5137357;27;20257;-68
2022/04/19 06:11:02;;;;;;;8.80;7.68;;;7.70;99.90;;;;;;5137270;27;20643;-69
2022/04/19 06:13:29;;;;;;;9.00;8.07;;;7.70;99.90;;;;;;5136891;27;20225;-68
2022/04/19 06:15:56;;;;;;;9.00;7.53;;;7.80;99.90;;;;;;5136846;27;20574;-67
2022/04/19 06:18:23;;;;;;;9.30;8.32;;;7.90;99.90;;;;;;5137192;27;20205;-68
2022/04/19 06:20:53;;;;;;;9.20;7.40;;;7.90;99.90;;;;;;5136669;27;20291;-67
2022/04/19 06:23:20;;;;;;;9.65;8.50;;;8.10;99.90;;;;;;5136968;27;20240;-67
2022/04/19 06:25:48;;;;;;;9.75;8.63;;;8.20;99.90;;;;;;5136734;27;20196;-68
2022/04/19 06:28:16;;;;;;;8.75;7.85;;;8.30;99.90;;;;;;5136673;27;20200;-67
2022/04/19 06:30:43;;;;;;;9.02;7.70;;;8.30;99.90;;;;;;5136478;27;20215;-68
2022/04/19 06:33:10;;;;;;;9.48;8.45;;;8.40;99.90;;;;;;5136077;27;20220;-68
2022/04/19 06:35:37;;;;;;;9.57;8.13;;;8.50;99.90;;;;;;5136590;27;20197;-67
2022/04/19 06:38:04;;;;;;;9.02;8.13;;;8.40;99.90;;;;;;5136424;27;20200;-68
2022/04/19 06:40:30;;;;;;;10.02;8.75;;;8.40;99.90;;;;;;5136716;27;20203;-67
2022/04/19 06:42:59;;;;;;;9.52;8.63;;;8.60;99.90;;;;;;5136053;27;20216;-67
2022/04/19 06:45:25;;;;;;;9.98;8.30;;;8.60;99.90;;;;;;5136294;27;20223;-68
2022/04/19 06:47:58;;;;;;;9.85;8.25;;;8.80;99.90;;;;;;5136373;27;20210;-68
2022/04/19 06:50:25;;;;;;;11.75;8.55;;;9.00;99.90;;;;;;5136206;27;20200;-68
2022/04/19 06:52:52;;;;;;;10.02;9.02;;;9.20;99.70;;;;;;5136221;27;20578;-68
2022/04/19 06:55:20;;;;;;;10.02;8.38;;;9.50;99.10;;;;;;5136053;27;20201;-67
2022/04/19 06:57:47;;;;;;;11.02;8.43;;;9.70;98.00;;;;;;5136076;27;20204;-68
2022/04/19 07:00:16;;;;;;;9.60;8.60;;;9.90;97.70;;;;;;5136152;27;20200;-68
2022/04/19 07:02:44;;;;;;;11.73;8.52;;;10.00;96.70;;;;;;5136065;27;20217;-68
2022/04/19 07:05:11;;;;;;;10.27;9.25;;;10.20;96.60;;;;;;5135886;27;20212;-68
2022/04/19 07:07:40;;;;;;;9.80;8.63;;;10.30;96.10;;;;;;5135872;27;20205;-68
2022/04/19 07:10:10;;;;;;;9.98;8.75;;;10.50;95.40;;;;;;5135871;27;20236;-68
2022/04/19 07:12:37;;;;;;;9.80;8.88;;;10.60;95.00;;;;;;5135653;27;20221;-68
2022/04/19 07:15:05;;;;;;;12.48;8.40;;;10.60;94.70;;;;;;5134871;27;20197;-67
2022/04/19 07:17:33;;;;;;;10.13;9.15;;;10.70;94.40;;;;;;5136034;27;20200;-68
2022/04/19 07:28:12;;;;;;;10.20;8.85;;;10.70;94.30;;;;;;5135663;27;20237;-68
2022/04/19 07:30:39;;;;;;;10.20;8.40;;;10.70;94.60;;;;;;5135338;27;20303;-68
2022/04/19 07:33:07;;;;;;;10.60;8.52;;;10.70;95.20;;;;;;5134885;27;20336;-68
2022/04/19 07:35:34;;;;;;;9.63;8.52;;;10.80;94.60;;;;;;5135327;27;20211;-68
2022/04/19 07:38:02;;;;;;;10.55;8.95;;;10.90;94.40;;;;;;5135399;27;20200;-68
2022/04/19 07:40:30;;;;;;;10.90;9.63;;;11.00;94.20;;;;;;5135583;27;20203;-68
2022/04/19 07:42:56;;;;;;;10.32;9.05;;;11.10;95.40;;;;;;5135240;27;20220;-68
2022/04/19 07:45:23;;;;;;;12.38;8.93;;;11.00;95.10;;;;;;5135162;27;20204;-68
2022/04/19 07:47:50;;;;;;;10.25;9.25;;;11.10;94.70;;;;;;5134948;27;20206;-68
2022/04/19 07:50:18;;;;;;;14.32;9.95;;;11.20;93.70;;;;;;5135155;27;20196;-67
2022/04/19 07:52:45;;;;;;;10.63;9.65;;;11.30;93.60;;;;;;5135049;27;20220;-68
2022/04/19 07:55:12;;;;;;;10.50;9.38;;;11.40;93.80;;;;;;5134999;27;20207;-68
2022/04/19 07:57:39;;;;;;;9.50;8.60;;;11.50;93.30;;;;;;5135039;27;20585;-68
2022/04/19 08:00:07;;;;;;;10.82;9.77;;;11.60;93.40;;;;;;5134999;27;20196;-68
2022/04/19 08:02:34;;;;;;;9.48;8.50;;;11.60;92.90;;;;;;5134887;27;20231;-68
2022/04/19 08:05:00;;;;;;;11.32;9.55;;;11.70;92.50;;;;;;5134740;27;20307;-68
2022/04/19 08:07:29;;;;;;;9.50;8.60;;;11.80;92.10;;;;;;5134897;27;20196;-68
2022/04/19 08:09:58;;;;;;;13.95;9.82;;;12.00;92.40;;;;;;5135042;27;20197;-68
2022/04/19 08:12:25;;;;;;;12.02;8.90;;;12.20;91.70;;;;;;5134502;27;20217;-68
2022/04/19 08:14:52;;;;;;;11.13;8.95;;;12.40;91.80;;;;;;5134576;27;20201;-68
2022/04/19 08:17:19;;;;;;;9.98;9.00;;;12.50;91.30;;;;;;5134506;27;20201;-68
2022/04/19 08:19:46;;;;;;;10.15;8.90;;;12.40;91.50;;;;;;5134718;27;20203;-68
2022/04/19 08:22:13;;;;;;;11.75;9.27;;;12.30;91.80;;;;;;5134670;27;20587;-68
2022/04/19 08:24:41;;;;;;;10.63;8.90;;;12.40;92.10;;;;;;5134368;27;20359;-68
2022/04/19 08:27:08;;;;;;;11.23;8.70;;;12.60;91.80;;;;;;5134625;27;20200;-68
2022/04/19 08:29:35;;;;;;;14.30;10.10;;;12.60;91.90;;;;;;5134587;27;20295;-68
2022/04/19 08:32:01;;;;;;;9.98;8.38;;;12.70;91.70;;;;;;5134572;28;20227;-68
2022/04/19 08:34:28;;;;;;;10.52;8.30;;;12.80;91.60;;;;;;5134203;28;20311;-68
2022/04/19 08:36:55;;;;;;;9.30;8.27;;;12.90;90.20;;;;;;5134499;28;20287;-68
2022/04/19 08:39:22;;;;;;;11.25;8.63;;;13.00;86.60;;;;;;5134530;27;20196;-68
2022/04/19 08:41:50;;;;;;;9.23;7.90;;;13.10;85.50;;;;;;5134317;28;20227;-69
2022/04/19 08:44:17;;;;;;;12.00;7.65;;;13.00;84.50;;;;;;5134372;28;20591;-68
2022/04/19 08:46:45;;;;;;;8.93;6.65;;;13.20;84.40;;;;;;5134421;28;20210;-68
2022/04/19 08:49:12;;;;;;;10.65;6.90;;;13.40;81.10;;;;;;5134456;28;20203;-68
2022/04/19 08:51:40;;;;;;;7.53;6.50;;;13.50;75.80;;;;;;5134435;28;20224;-68
2022/04/19 08:59:40;;;;;;;7.43;6.72;;;15.90;72.70;;;;;;5134306;28;20196;-68
2022/04/19 09:02:07;;;;;;;7.07;6.45;;;17.60;67.30;;;;;;5134044;28;20727;-68
2022/04/19 09:04:34;;;;;;;7.93;6.63;;;18.50;56.40;;;;;;5134238;27;20203;-68
2022/04/19 09:07:01;;;;;;;6.78;6.07;;;18.80;55.80;;;;;;5134208;28;20203;-68
2022/04/19 09:09:29;;;;;;;7.95;6.78;;;18.50;54.30;;;;;;5134277;28;20201;-68
2022/04/19 09:12:07;;;;;;;8.00;5.80;;;18.00;55.10;;;;;;5134120;27;20275;-68
2022/04/19 09:14:34;;;;;;;11.17;5.90;;;18.70;54.40;;;;;;5133935;28;20702;-68
2022/04/19 09:17:04;;;;;;;7.60;6.22;;;19.10;51.60;;;;;;5134182;28;20507;-68
2022/04/19 09:19:31;;;;;;;7.38;6.30;;;18.90;51.80;;;;;;5134171;28;20201;-68
2022/04/19 09:21:58;;;;;;;6.15;5.55;;;18.60;51.30;;;;;;5133877;28;20632;-68
2022/04/19 09:24:26;;;;;;;7.07;6.22;;;18.40;52.00;;;;;;5133979;27;20197;-68
2022/04/19 09:26:54;;;;;;;5.63;4.72;;;19.00;50.40;;;;;;5133914;28;20207;-68
2022/04/19 09:29:24;;;;;;;4.93;4.53;;;19.20;50.20;;;;;;5133822;28;20206;-68
2022/04/19 09:31:53;;;;;;;4.93;4.17;;;19.60;47.00;;;;;;5134007;28;20471;-68
2022/04/19 09:34:24;;;;;;;4.07;3.77;;;20.70;46.20;;;;;;5133798;27;20482;-69
2022/04/19 09:36:54;;;;;;;4.17;3.77;;;21.80;44.30;;;;;;5134797;27;20439;-69
2022/04/19 09:39:28;;;;;;;6.13;4.50;;;23.80;42.50;;;;;;5137577;27;20440;-69
2022/04/19 09:42:01;;;;;;;5.67;4.07;;;25.30;39.40;;;;;;5137759;27;20469;-69
2022/04/19 09:44:30;;;;;;;4.00;3.70;;;26.50;36.40;;;;;;5137472;27;20442;-69
2022/04/19 09:47:04;;;;;;;6.73;4.90;;;27.60;34.00;;;;;;5137565;27;20527;-69
2022/04/19 09:49:49;;;;;;;5.07;4.50;;;27.90;32.60;;;;;;5137591;27;20804;-69
2022/04/19 09:52:41;;;;;;;5.60;4.60;;;28.00;32.80;;;;;;5137677;27;20470;-69
2022/04/19 09:55:10;;;;;;;4.77;4.37;;;27.40;32.20;;;;;;5137235;27;20529;-69
2022/04/19 09:57:39;;;;;;;6.40;5.30;;;27.50;31.10;;;;;;5137220;27;20518;-69
2022/04/19 10:00:10;;;;;;;5.10;4.70;;;28.20;30.20;;;;;;5137292;27;20495;-69
2022/04/19 10:08:21;;;;;;;6.10;5.13;;;24.30;35.00;;;;;;5137099;27;20769;-69
2022/04/19 10:10:50;;;;;;;5.67;5.17;;;25.40;33.90;;;;;;5137143;27;20469;-69
2022/04/19 10:13:19;;;;;;;5.30;4.73;;;26.90;33.40;;;;;;5136807;27;20565;-69
2022/04/19 10:15:48;;;;;;;4.40;4.00;;;27.30;32.20;;;;;;5136915;27;20461;-69
2022/04/19 10:18:15;;;;;;;5.80;4.80;;;27.60;31.80;;;;;;5136778;27;20923;-69
2022/04/19 10:20:46;;;;;;;4.87;4.40;;;26.60;30.30;;;;;;5136828;27;20521;-69
2022/04/19 10:23:15;;;;;;;5.27;4.60;;;26.80;31.60;;;;;;5136435;27;20464;-69
2022/04/19 10:25:44;;;;;;;5.10;4.70;;;26.60;32.40;;;;;;5136840;27;20450;-69
2022/04/19 10:28:13;;;;;;;5.20;4.70;;;27.30;30.30;;;;;;5136691;27;20442;-69
2022/04/19 10:30:48;;;;;;;4.60;4.20;;;26.70;30.40;;;;;;5136631;27;20453;-69
2022/04/19 10:33:54;;;;;;;4.73;4.33;;;25.70;30.90;;;;;;5136700;27;20481;-69
2022/04/19 10:36:23;;;;;;;5.23;4.73;;;25.50;30.80;;;;;;5136663;27;20440;-69
2022/04/19 10:39:35;;;;;;;4.80;4.40;;;25.70;31.50;;;;;;5136535;27;20430;-69
2022/04/19 10:42:03;;;;;;;5.17;4.67;;;26.60;31.10;;;;;;5099645;27;20478;-69
2022/04/19 10:44:32;;;;;;;7.77;4.90;;;27.30;29.50;;;;;;5136019;27;20933;-69
2022/04/19 10:47:16;;;;;;;5.10;4.70;;;28.00;29.40;;;;;;5136378;27;20841;-69
2022/04/19 10:49:55;;;;;;;5.10;4.60;;;26.70;30.00;;;;;;5136425;27;20446;-69
2022/04/19 10:52:50;;;;;;;5.73;5.23;;;26.20;31.10;;;;;;5136087;27;20463;-69
2022/04/19 10:55:26;;;;;;;5.80;5.30;;;26.40;31.20;;;;;;5136266;27;20487;-69
2022/04/19 10:58:09;;;;;;;4.90;4.50;;;27.10;30.40;;;;;;5136268;27;20834;-69
2022/04/19 11:01:00;;;;;;;4.90;4.50;;;27.30;30.00;;;;;;5136042;27;20975;-69
2022/04/19 11:03:47;;;;;;;5.90;5.40;;;28.00;29.40;;;;;;5120931;27;20477;-69
2022/04/19 11:06:40;;;;;;;5.60;5.10;;;27.70;29.70;;;;;;5136334;27;20440;-69
2022/04/19 11:09:22;;;;;;;6.43;5.50;;;28.00;28.60;;;;;;5136040;27;20449;-69
2022/04/19 11:11:50;;;;;;;5.90;5.40;;;26.90;30.30;;;;;;5135801;27;20466;-70
2022/04/19 11:14:20;;;;;;;5.73;5.23;;;26.00;31.10;;;;;;5135659;27;20826;-69
2022/04/19 11:16:50;;;;;;;5.43;4.90;;;24.20;33.70;;;;;;5135857;27;20474;-69
2022/04/19 11:19:20;;;;;;;5.00;4.50;;;22.50;35.00;;;;;;5135800;27;20438;-69
2022/04/19 11:21:51;;;;;;;4.83;4.33;;;22.10;35.10;;;;;;5135781;27;20467;-69
2022/04/19 11:24:56;;;;;;;5.37;4.87;;;22.30;36.60;;;;;;5135633;27;20431;-69
2022/04/19 11:27:23;;;;;;;6.33;5.77;;;22.60;35.90;;;;;;5135406;27;20901;-69
2022/04/19 11:29:51;;;;;;;6.50;5.80;;;22.40;35.10;;;;;;5135285;27;20450;-69
2022/04/19 11:32:26;;;;;;;6.40;5.80;;;21.90;35.90;;;;;;5135386;27;20840;-69
2022/04/19 11:35:01;;;;;;;6.40;5.23;;;21.50;37.50;;;;;;5134955;27;20559;-69
2022/04/19 11:37:32;;;;;;;5.50;5.00;;;21.00;37.30;;;;;;5135164;27;20496;-69
2022/04/19 11:48:28;;;;;;;5.70;5.10;;;20.00;38.00;;;;;;5135142;27;20516;-68
2022/04/19 11:51:06;;;;;;;5.87;5.27;;;19.80;38.30;;;;;;5135188;27;20528;-68
2022/04/19 11:53:34;;;;;;;6.03;4.80;;;19.70;38.60;;;;;;5134901;27;20485;-69
2022/04/19 11:56:01;;;;;;;6.37;5.77;;;19.80;38.10;;;;;;5134809;27;20877;-69
2022/04/19 11:58:29;;;;;;;6.10;5.50;;;19.80;39.20;;;;;;5134850;27;20447;-68
2022/04/19 12:01:01;;;;;;;7.17;5.67;;;19.60;39.10;;;;;;5134542;27;20443;-68
2022/04/19 12:03:29;;;;;;;5.78;5.20;;;19.40;39.80;;;;;;5134805;27;20472;-68
2022/04/19 12:06:04;;;;;;;5.75;5.10;;;19.30;39.80;;;;;;5134922;27;20382;-68
2022/04/19 12:08:34;;;;;;;6.45;4.80;;;19.10;38.60;;;;;;5134962;27;20211;-68
2022/04/19 12:11:03;;;;;;;6.75;4.68;;;18.70;39.60;;;;;;5134638;27;20655;-68
2022/04/19 12:13:30;;;;;;;5.80;5.28;;;19.10;40.20;;;;;;5134647;27;20232;-69
2022/04/19 12:15:57;;;;;;;5.90;4.90;;;19.20;40.40;;;;;;5134701;27;20662;-68
2022/04/19 12:18:31;;;;;;;6.83;5.40;;;19.50;39.30;;;;;;5134697;27;20440;-68
2022/04/19 12:20:59;;;;;;;6.82;5.30;;;19.40;39.90;;;;;;5135005;27;20453;-68
2022/04/19 12:23:25;;;;;;;6.95;6.25;;;19.30;39.40;;;;;;5134515;27;20229;-68
2022/04/19 12:26:14;;;;;;;6.75;6.05;;;19.20;39.70;;;;;;5134557;27;20216;-68
2022/04/19 12:28:43;;;;;;;5.80;5.30;;;18.50;40.10;;;;;;5129607;27;20211;-68
2022/04/19 12:31:25;;;;;;;6.10;5.50;;;18.50;40.50;;;;;;5134617;27;20208;-68
2022/04/19 12:33:55;;;;;;;5.53;5.03;;;18.80;40.60;;;;;;5134058;27;20242;-68
2022/04/19 12:36:25;;;;;;;5.60;5.10;;;18.80;40.30;;;;;;5134347;28;20659;-68
2022/04/19 12:39:00;;;;;;;6.10;5.50;;;18.90;41.00;;;;;;5134472;27;20209;-68
2022/04/19 12:41:40;;;;;;;5.75;5.25;;;19.30;41.40;;;;;;5134464;28;20291;-69
2022/04/19 12:44:10;;;;;;;6.00;5.40;;;19.40;38.70;;;;;;5134419;28;20196;-68
2022/04/19 12:46:42;;;;;;;5.80;5.30;;;19.20;38.50;;;;;;5134463;28;20438;-68
2022/04/19 12:49:20;;;;;;;6.57;5.63;;;18.90;39.90;;;;;;5134321;28;20627;-68
2022/04/19 12:51:58;;;;;;;6.40;5.30;;;18.60;39.30;;;;;;5134002;28;20720;-68
2022/04/19 12:54:27;;;;;;;5.25;4.55;;;18.40;40.90;;;;;;5134182;28;20220;-68
2022/04/19 12:57:02;;;;;;;5.15;4.65;;;18.80;40.10;;;;;;5134351;28;20201;-68
2022/04/19 12:59:30;;;;;;;5.70;5.07;;;18.80;39.30;;;;;;5134159;28;20200;-68
2022/04/19 13:01:58;;;;;;;5.43;4.93;;;18.70;39.00;;;;;;5134190;28;20252;-68
2022/04/19 13:04:25;;;;;;;5.00;4.50;;;18.80;40.50;;;;;;5134078;28;20301;-68
2022/04/19 13:12:24;;;;;;;5.93;5.28;;;19.20;39.00;;;;;;5135801;27;20264;-68
2022/04/19 13:14:53;;;;;;;5.90;5.30;;;19.00;39.60;;;;;;5137960;27;20205;-69
2022/04/19 13:17:20;;;;;;;9.60;6.10;;;19.10;39.70;;;;;;5138133;27;20299;-68
2022/04/19 13:19:47;;;;;;;6.80;5.82;;;18.90;39.90;;;;;;5138116;27;20208;-68
2022/04/19 13:22:15;;;;;;;7.30;6.43;;;19.10;40.50;;;;;;5138002;27;20224;-69
2022/04/19 13:24:43;;;;;;;6.53;5.93;;;19.20;39.80;;;;;;5137686;27;20533;-69
2022/04/19 13:27:11;;;;;;;9.48;6.47;;;19.50;41.30;;;;;;5137969;27;20672;-68
2022/04/19 13:29:41;;;;;;;5.87;5.33;;;19.50;40.20;;;;;;5137663;27;20216;-68
2022/04/19 13:32:10;;;;;;;43.53;39.50;;;19.60;41.00;;;;;;5137851;27;20466;-68
2022/04/19 13:34:37;;;;;;;37.65;33.85;;;19.70;40.50;;;;;;5137406;27;20497;-68
2022/04/19 13:37:05;;;;;;;8.25;7.45;;;19.30;40.30;;;;;;5137782;27;20201;-68
2022/04/19 13:39:32;;;;;;;5.63;5.00;;;19.10;40.70;;;;;;5137711;27;20211;-68
2022/04/19 13:41:59;;;;;;;4.85;4.45;;;19.20;41.10;;;;;;5137778;27;20224;-68
2022/04/19 13:44:26;;;;;;;5.50;5.10;;;19.20;41.10;;;;;;5137458;27;20590;-68